This is the latest recevied weather packets stored in our database for station/object KB9PVH-3. If no packets are shown the sender has not sent any weather packets the latest 10 day(s).
| Time | Temp. | Humidity | Pressure | Rain* | Wind** | Luminosity | Snow |
|---|---|---|---|---|---|---|---|
| 1778077390 | 10.56° C | 55% | 1015 hPa | 0 mm | - | - | - |
| 1778076340 | 10° C | 52% | 1014.9 hPa | 0 mm | - | - | - |
| 1778075286 | 8.89° C | 57% | 1014.8 hPa | 0 mm | - | - | - |
| 1778074240 | 8.33° C | 59% | 1015 hPa | 0 mm | - | - | - |
| 1778071087 | 5.56° C | 69% | 1014.2 hPa | 0 mm | - | - | - |
| 1778070038 | 5° C | 71% | 1013.9 hPa | 0 mm | - | - | - |
| 1778068986 | 3.89° C | 71% | 1013.9 hPa | 0 mm | - | - | - |
| 1778067936 | 3.33° C | 73% | 1013.9 hPa | 0 mm | - | - | - |
| 1778066886 | 2.78° C | 73% | 1014 hPa | 0 mm | - | - | - |
| 1778065836 | 2.78° C | 73% | 1013.8 hPa | 0 mm | - | - | - |
| 1778064786 | 2.78° C | 70% | 1013.5 hPa | 0 mm | - | - | - |
| 1778063736 | 3.33° C | 72% | 1013.6 hPa | 0 mm | - | - | - |
| 1778061637 | 3.33° C | 71% | 1013.5 hPa | 0 mm | - | - | - |
| 1778060586 | 3.33° C | 72% | 1013.6 hPa | 0 mm | - | - | - |
| 1778057436 | 2.78° C | 74% | 1013.7 hPa | 0 mm | - | - | - |
| 1778056385 | 2.22° C | 73% | 1013.3 hPa | 0 mm | - | - | - |
| 1778054287 | 2.78° C | 72% | 1013 hPa | 0 mm | - | - | - |
| 1778052186 | 3.33° C | 64% | 1012.9 hPa | 0 mm | - | - | - |
| 1778051137 | 3.33° C | 63% | 1012.8 hPa | 0 mm | - | - | - |
| 1778050097 | 3.33° C | 68% | 1013.1 hPa | 0 mm | - | - | - |
| 1778049070 | 3.33° C | 61% | 1013.2 hPa | 0 mm | - | - | - |
| 1778048017 | 3.89° C | 61% | 1013.2 hPa | 0 mm | - | - | - |
| 1778046965 | 3.33° C | 72% | 1013 hPa | 0 mm | - | - | - |
| 1778045916 | 3.89° C | 64% | 1013.1 hPa | 0 mm | - | - | - |
| 1778044865 | 4.44° C | 57% | 1013.1 hPa | 0 mm | - | - | - |
* Rain latest hour (hover to see other rain measurements)
** Current wind speed in m/s (hover to see current wind gust speed)